createdAt,value
2017-07-16T00:01:27.479Z,12.90
2017-07-16T00:03:54.924Z,12.80
2017-07-16T00:06:23.140Z,12.90
2017-07-16T00:08:50.600Z,12.90
2017-07-16T00:11:18.049Z,12.80
2017-07-16T00:13:45.491Z,12.70
2017-07-16T00:16:12.939Z,12.80
2017-07-16T00:18:40.383Z,12.90
2017-07-16T00:21:08.607Z,12.70
2017-07-16T00:23:36.072Z,12.70
2017-07-16T00:26:03.531Z,12.50
2017-07-16T00:28:30.979Z,12.30
2017-07-16T00:30:58.474Z,12.40
2017-07-16T00:33:26.676Z,12.30
2017-07-16T00:35:54.124Z,12.30
2017-07-16T00:38:21.563Z,12.20
2017-07-16T00:40:49.792Z,12.30
2017-07-16T00:43:17.246Z,12.30
2017-07-16T00:45:44.693Z,12.30
2017-07-16T00:48:12.155Z,12.40
2017-07-16T00:50:39.604Z,12.50
2017-07-16T00:53:07.063Z,12.40
2017-07-16T00:55:34.504Z,12.30
2017-07-16T00:58:01.950Z,12.30
2017-07-16T01:00:29.395Z,12.20
2017-07-16T01:02:57.619Z,12.30
2017-07-16T01:05:25.065Z,12.20
2017-07-16T01:07:52.517Z,12.10
2017-07-16T01:10:19.971Z,12.20
2017-07-16T01:12:47.415Z,12.30
2017-07-16T01:15:14.873Z,12.40
2017-07-16T01:17:42.311Z,12.40
2017-07-16T01:20:09.772Z,12.40
2017-07-16T01:22:37.975Z,12.40
2017-07-16T01:25:05.428Z,12.30
2017-07-16T01:27:32.876Z,12.50
2017-07-16T01:30:00.343Z,12.60
2017-07-16T01:32:27.797Z,12.60
2017-07-16T01:34:55.245Z,12.70
2017-07-16T01:37:22.697Z,12.80
2017-07-16T01:39:50.143Z,12.70
2017-07-16T01:42:17.588Z,12.70
2017-07-16T01:44:45.036Z,12.80
2017-07-16T01:47:13.268Z,12.90
2017-07-16T01:49:40.708Z,12.90
2017-07-16T01:52:08.164Z,13.00
2017-07-16T01:54:35.618Z,12.80
2017-07-16T01:57:03.100Z,12.90
2017-07-16T01:59:30.558Z,12.90
2017-07-16T02:01:58.011Z,13.00
2017-07-16T02:04:25.455Z,13.00
2017-07-16T02:06:52.899Z,13.10
2017-07-16T02:09:20.356Z,13.20
2017-07-16T02:11:47.816Z,13.20
2017-07-16T02:14:15.268Z,13.10
2017-07-16T02:16:42.712Z,13.10
2017-07-16T02:19:10.185Z,13.00
2017-07-16T02:21:37.639Z,13.00
2017-07-16T02:24:05.079Z,12.90
2017-07-16T02:26:32.524Z,12.90
2017-07-16T02:28:59.963Z,12.90
2017-07-16T02:31:28.179Z,12.90
2017-07-16T02:33:55.622Z,12.80
2017-07-16T02:36:23.068Z,12.80
2017-07-16T02:38:52.088Z,12.80
2017-07-16T02:41:19.545Z,12.70
2017-07-16T02:43:46.993Z,12.70
2017-07-16T02:46:14.446Z,12.70
2017-07-16T02:48:41.904Z,12.80
2017-07-16T02:51:09.339Z,12.70
2017-07-16T02:53:36.787Z,12.70
2017-07-16T02:56:04.231Z,12.70
2017-07-16T02:58:32.451Z,12.70
2017-07-16T03:00:59.891Z,12.70
2017-07-16T03:03:27.340Z,12.70
2017-07-16T03:05:54.780Z,12.70
2017-07-16T03:08:23.016Z,12.60
2017-07-16T03:10:50.460Z,12.60
2017-07-16T03:13:17.904Z,12.60
2017-07-16T03:15:45.357Z,12.70
2017-07-16T03:18:12.800Z,12.70
2017-07-16T03:20:40.247Z,12.70
2017-07-16T03:23:07.691Z,12.70
2017-07-16T03:25:37.846Z,12.80
2017-07-16T03:28:05.287Z,12.80
2017-07-16T03:30:32.736Z,12.80
2017-07-16T03:33:00.179Z,12.90
2017-07-16T03:35:28.415Z,13.00
2017-07-16T03:37:55.868Z,13.00
2017-07-16T03:40:23.324Z,13.00
2017-07-16T03:42:50.786Z,13.00
2017-07-16T03:45:18.228Z,13.00
2017-07-16T03:47:45.680Z,13.00
2017-07-16T03:50:13.132Z,13.00
2017-07-16T03:52:40.586Z,13.00
2017-07-16T03:55:08.028Z,13.00
2017-07-16T03:57:35.472Z,13.10
2017-07-16T04:00:02.912Z,13.10
2017-07-16T04:02:31.125Z,13.20
2017-07-16T04:04:58.579Z,13.20
2017-07-16T04:07:26.029Z,13.20
2017-07-16T04:09:53.480Z,13.10
2017-07-16T04:12:20.925Z,13.20
2017-07-16T04:14:48.367Z,13.20
2017-07-16T04:17:16.580Z,13.20
2017-07-16T04:19:44.039Z,13.20
2017-07-16T04:22:11.490Z,13.20
2017-07-16T04:24:38.928Z,13.20
2017-07-16T04:27:06.373Z,13.30
2017-07-16T04:29:33.821Z,13.30
2017-07-16T04:32:02.041Z,13.30
2017-07-16T04:34:29.488Z,13.30
2017-07-16T04:36:56.944Z,13.20
2017-07-16T04:39:24.394Z,13.50
2017-07-16T04:41:51.852Z,13.50
2017-07-16T04:44:19.306Z,13.50
2017-07-16T04:46:46.769Z,13.60
2017-07-16T04:49:14.222Z,13.60
2017-07-16T04:51:41.675Z,13.70
2017-07-16T04:54:09.112Z,13.90
2017-07-16T04:56:36.556Z,13.90
2017-07-16T04:59:04.772Z,14.00
2017-07-16T05:01:32.225Z,14.00
2017-07-16T05:03:59.683Z,14.20
2017-07-16T05:06:27.123Z,14.20
2017-07-16T05:08:54.577Z,14.30
2017-07-16T05:11:22.015Z,14.30
2017-07-16T05:13:49.464Z,14.40
2017-07-16T05:16:17.680Z,14.50
2017-07-16T05:18:45.171Z,14.50
2017-07-16T05:21:12.615Z,14.60
2017-07-16T05:23:40.066Z,14.70
2017-07-16T05:26:07.531Z,14.80
2017-07-16T05:28:35.013Z,14.90
2017-07-16T05:31:03.229Z,15.20
2017-07-16T05:33:30.667Z,15.20
2017-07-16T05:35:58.110Z,15.30
2017-07-16T05:38:26.320Z,16.00
2017-07-16T05:40:53.777Z,16.00
2017-07-16T05:43:21.221Z,16.60
2017-07-16T05:45:48.674Z,17.50
2017-07-16T05:48:16.111Z,18.40
2017-07-16T05:50:44.323Z,20.70
2017-07-16T05:53:11.775Z,20.60
2017-07-16T05:55:39.236Z,21.90
2017-07-16T05:58:06.687Z,22.70
2017-07-16T06:00:34.146Z,23.70
2017-07-16T06:03:01.599Z,23.90
2017-07-16T06:05:29.064Z,24.20
2017-07-16T06:07:56.513Z,24.20
2017-07-16T06:10:23.981Z,24.50
2017-07-16T06:12:51.426Z,24.80
2017-07-16T06:15:18.887Z,25.00
2017-07-16T06:17:46.339Z,25.20
2017-07-16T06:20:13.792Z,25.50
2017-07-16T06:22:41.252Z,25.40
2017-07-16T06:25:08.757Z,25.70
2017-07-16T06:27:36.203Z,26.20
2017-07-16T06:30:03.655Z,26.30
2017-07-16T06:32:31.107Z,25.90
2017-07-16T06:34:58.551Z,25.80
2017-07-16T06:37:26.018Z,25.70
2017-07-16T06:39:53.448Z,25.90
2017-07-16T06:42:20.899Z,25.80
2017-07-16T06:44:48.356Z,25.70
2017-07-16T06:47:15.799Z,25.80
2017-07-16T06:49:43.255Z,25.90
2017-07-16T06:52:10.697Z,25.60
2017-07-16T06:54:38.148Z,24.70
2017-07-16T06:57:06.358Z,24.40
2017-07-16T06:59:33.812Z,24.40
2017-07-16T07:02:01.248Z,24.70
2017-07-16T07:04:28.697Z,25.20
2017-07-16T07:06:56.130Z,25.70
2017-07-16T07:09:24.366Z,23.10
2017-07-16T07:11:51.813Z,23.10
2017-07-16T07:14:19.251Z,22.80
2017-07-16T07:16:46.707Z,23.10
2017-07-16T07:19:14.166Z,23.90
2017-07-16T07:21:41.611Z,21.40
2017-07-16T07:24:09.056Z,21.30
2017-07-16T07:26:36.502Z,20.70
2017-07-16T07:29:03.960Z,21.60
2017-07-16T07:31:31.552Z,22.00
2017-07-16T07:33:59.092Z,21.70
2017-07-16T07:36:26.539Z,21.60
2017-07-16T07:38:53.983Z,22.40
2017-07-16T07:41:21.431Z,22.60
2017-07-16T07:43:48.871Z,23.80
2017-07-16T07:46:16.336Z,23.00
2017-07-16T07:48:43.779Z,23.80
2017-07-16T07:51:11.228Z,24.20
2017-07-16T07:53:38.696Z,24.30
2017-07-16T07:56:06.131Z,24.80
2017-07-16T07:58:33.574Z,25.40
2017-07-16T08:01:01.801Z,24.70
2017-07-16T08:03:29.257Z,24.70
2017-07-16T08:05:56.703Z,25.10
2017-07-16T08:08:24.152Z,25.30
2017-07-16T08:10:51.592Z,25.40
2017-07-16T08:13:19.050Z,25.90
2017-07-16T08:15:46.482Z,26.30
2017-07-16T08:18:14.695Z,24.30
2017-07-16T08:20:42.139Z,24.30
2017-07-16T08:23:09.592Z,24.60
2017-07-16T08:25:37.026Z,23.30
2017-07-16T08:28:05.259Z,22.60
2017-07-16T08:30:32.715Z,22.60
2017-07-16T08:33:00.171Z,23.50
2017-07-16T08:35:27.627Z,23.00
2017-07-16T08:37:55.088Z,23.60
2017-07-16T08:40:22.532Z,23.50
2017-07-16T08:42:49.979Z,24.20
2017-07-16T08:45:17.432Z,25.40
2017-07-16T08:47:45.126Z,25.60
2017-07-16T08:50:12.589Z,24.90
2017-07-16T08:52:40.027Z,26.20
2017-07-16T08:55:07.480Z,25.50
2017-07-16T08:57:34.926Z,25.10
2017-07-16T09:00:02.383Z,24.80
2017-07-16T09:02:29.828Z,24.50
2017-07-16T09:04:57.268Z,23.60
2017-07-16T09:07:24.716Z,24.50
2017-07-16T09:09:52.157Z,24.00
2017-07-16T09:12:20.381Z,25.80
2017-07-16T09:14:47.851Z,25.80
2017-07-16T09:17:15.303Z,25.20
2017-07-16T09:19:42.747Z,24.90
2017-07-16T09:22:10.194Z,25.80
2017-07-16T09:24:37.642Z,25.00
2017-07-16T09:27:05.079Z,25.00
2017-07-16T09:29:32.519Z,26.80
2017-07-16T09:32:00.735Z,27.60
2017-07-16T09:34:28.175Z,27.50
2017-07-16T09:36:55.624Z,27.80
2017-07-16T09:39:23.061Z,25.20
2017-07-16T09:41:50.539Z,24.70
2017-07-16T09:44:17.963Z,25.40
2017-07-16T09:46:45.415Z,24.10
2017-07-16T09:49:12.872Z,23.90
2017-07-16T09:51:40.312Z,25.50
2017-07-16T09:54:07.757Z,25.80
2017-07-16T09:56:35.195Z,27.50
2017-07-16T09:59:03.435Z,28.50
2017-07-16T10:01:30.888Z,28.40
2017-07-16T10:03:58.336Z,24.80
2017-07-16T10:06:25.785Z,26.30
2017-07-16T10:08:53.235Z,27.80
2017-07-16T10:11:20.681Z,28.10
2017-07-16T10:13:48.147Z,27.20
2017-07-16T10:16:15.592Z,28.80
2017-07-16T10:18:43.031Z,26.70
2017-07-16T10:21:10.483Z,26.60
2017-07-16T10:23:38.691Z,25.30
2017-07-16T10:26:06.148Z,25.30
2017-07-16T10:28:33.601Z,25.90
2017-07-16T10:31:01.048Z,25.10
2017-07-16T10:33:28.487Z,26.00
2017-07-16T10:35:55.934Z,26.60
2017-07-16T10:38:24.144Z,28.20
2017-07-16T10:40:51.603Z,28.20
2017-07-16T10:43:19.043Z,29.40
2017-07-16T10:45:46.496Z,29.90
2017-07-16T10:48:13.936Z,30.60
2017-07-16T10:50:42.172Z,26.70
2017-07-16T10:53:09.612Z,26.70
2017-07-16T10:55:37.054Z,24.70
2017-07-16T10:58:04.511Z,25.20
2017-07-16T11:00:31.957Z,25.50
2017-07-16T11:02:59.428Z,25.40
2017-07-16T11:05:26.883Z,24.60
2017-07-16T11:07:54.340Z,25.60
2017-07-16T11:10:21.795Z,26.80
2017-07-16T11:12:49.253Z,28.10
2017-07-16T11:15:16.709Z,28.70
2017-07-16T11:17:44.161Z,28.30
2017-07-16T11:20:11.612Z,28.40
2017-07-16T11:22:39.075Z,28.20
2017-07-16T11:25:06.550Z,29.00
2017-07-16T11:27:34.807Z,28.50
2017-07-16T11:30:02.263Z,28.50
2017-07-16T11:32:29.718Z,26.30
2017-07-16T11:34:57.175Z,27.70
2017-07-16T11:37:24.632Z,28.40
2017-07-16T11:39:52.083Z,29.70
2017-07-16T11:42:19.520Z,29.60
2017-07-16T11:44:46.968Z,26.50
2017-07-16T11:47:14.419Z,28.00
2017-07-16T11:49:42.631Z,30.30
2017-07-16T11:52:10.067Z,30.30
2017-07-16T11:54:37.519Z,30.70
2017-07-16T11:57:04.961Z,30.10
2017-07-16T11:59:32.429Z,29.70
2017-07-16T12:01:59.872Z,29.90
2017-07-16T12:04:28.083Z,27.50
2017-07-16T12:06:55.539Z,27.40
2017-07-16T12:09:22.989Z,26.20
2017-07-16T12:11:50.439Z,26.30
2017-07-16T12:14:17.881Z,26.70
2017-07-16T12:16:45.328Z,27.50
2017-07-16T12:19:13.537Z,26.70
2017-07-16T12:21:40.992Z,26.70
2017-07-16T12:24:08.435Z,25.90
2017-07-16T12:26:35.908Z,25.50
2017-07-16T12:29:03.360Z,25.30
2017-07-16T12:31:30.813Z,25.70
2017-07-16T12:33:58.257Z,25.80
2017-07-16T12:36:25.695Z,26.50
2017-07-16T12:38:53.912Z,27.50
2017-07-16T12:41:21.347Z,27.50
2017-07-16T12:43:48.793Z,27.60
2017-07-16T12:46:16.230Z,27.40
2017-07-16T12:48:44.448Z,26.90
2017-07-16T12:51:11.891Z,26.90
2017-07-16T12:53:39.340Z,28.10
2017-07-16T12:56:06.779Z,27.20
2017-07-16T12:58:35.002Z,26.60
2017-07-16T13:01:02.448Z,26.60
2017-07-16T13:03:29.900Z,26.10
2017-07-16T13:05:57.364Z,25.90
2017-07-16T13:08:24.800Z,25.60
2017-07-16T13:10:52.249Z,25.00
2017-07-16T13:13:19.695Z,25.40
2017-07-16T13:15:47.147Z,26.10
2017-07-16T13:18:15.360Z,25.90
2017-07-16T13:20:42.815Z,25.90
2017-07-16T13:23:10.267Z,26.10
2017-07-16T13:25:37.726Z,25.90
2017-07-16T13:28:05.180Z,25.60
2017-07-16T13:30:32.639Z,26.50
2017-07-16T13:33:00.080Z,27.20
2017-07-16T13:35:27.519Z,27.40
2017-07-16T13:37:54.974Z,27.50
2017-07-16T13:40:23.179Z,25.80
2017-07-16T13:42:50.633Z,25.80
2017-07-16T13:45:18.088Z,27.00
2017-07-16T13:47:46.219Z,26.00
2017-07-16T13:50:14.437Z,25.90
2017-07-16T13:52:41.904Z,25.90
2017-07-16T13:55:09.348Z,26.50
2017-07-16T13:57:36.792Z,26.70
2017-07-16T14:00:04.243Z,27.20
2017-07-16T14:02:31.685Z,26.70
2017-07-16T14:04:59.896Z,25.70
2017-07-16T14:07:27.349Z,25.80
2017-07-16T14:09:54.804Z,26.40
2017-07-16T14:12:22.248Z,26.60
2017-07-16T14:14:49.711Z,27.10
2017-07-16T14:17:17.152Z,27.30
2017-07-16T14:19:44.656Z,26.80
2017-07-16T14:22:12.100Z,25.90
2017-07-16T14:24:39.556Z,26.70
2017-07-16T14:27:06.999Z,25.70
2017-07-16T14:29:34.443Z,25.90
2017-07-16T14:32:01.890Z,25.60
2017-07-16T14:34:29.337Z,25.30
2017-07-16T14:36:56.822Z,24.70
2017-07-16T14:39:24.995Z,25.00
2017-07-16T14:41:52.452Z,25.00
2017-07-16T14:44:19.896Z,25.80
2017-07-16T14:46:47.344Z,26.30
2017-07-16T14:49:14.779Z,26.70
2017-07-16T14:51:42.991Z,27.00
2017-07-16T14:54:10.435Z,27.00
2017-07-16T14:56:37.887Z,27.40
2017-07-16T14:59:05.322Z,27.50
2017-07-16T15:01:32.871Z,27.70
2017-07-16T15:04:01.327Z,27.70
2017-07-16T15:06:28.775Z,27.70
2017-07-16T15:08:56.225Z,27.60
2017-07-16T15:11:23.668Z,27.20
2017-07-16T15:13:51.124Z,27.40
2017-07-16T15:16:18.613Z,27.40
2017-07-16T15:18:46.036Z,27.50
2017-07-16T15:21:13.487Z,27.50
2017-07-16T15:23:40.923Z,27.40
2017-07-16T15:26:08.378Z,27.50
2017-07-16T15:28:35.819Z,27.20
2017-07-16T15:31:04.037Z,27.10
2017-07-16T15:33:31.491Z,27.10
2017-07-16T15:35:58.947Z,27.30
2017-07-16T15:38:26.391Z,27.50
2017-07-16T15:40:53.858Z,27.50
2017-07-16T15:43:21.293Z,27.30
2017-07-16T15:45:48.728Z,27.40
2017-07-16T15:48:16.952Z,27.50
2017-07-16T15:50:44.400Z,27.50
2017-07-16T15:53:11.855Z,27.40
2017-07-16T15:55:39.302Z,27.50
2017-07-16T15:58:06.749Z,27.30
2017-07-16T16:00:34.191Z,27.50
2017-07-16T16:03:02.398Z,26.70
2017-07-16T16:05:29.843Z,26.70
2017-07-16T16:07:57.334Z,26.60
2017-07-16T16:10:24.754Z,27.00
2017-07-16T16:12:52.195Z,27.10
2017-07-16T16:15:19.640Z,27.40
2017-07-16T16:17:47.083Z,27.30
2017-07-16T16:20:15.307Z,27.60
2017-07-16T16:22:42.751Z,27.60
2017-07-16T16:25:10.198Z,27.40
2017-07-16T16:27:37.641Z,27.40
2017-07-16T16:30:05.856Z,26.70
2017-07-16T16:32:33.294Z,26.70
2017-07-16T16:35:00.747Z,26.90
2017-07-16T16:37:28.193Z,27.20
2017-07-16T16:39:56.420Z,26.60
2017-07-16T16:42:23.876Z,26.60
2017-07-16T16:44:51.319Z,26.80
2017-07-16T16:47:18.767Z,27.00
2017-07-16T16:49:46.208Z,26.90
2017-07-16T16:52:13.653Z,26.90
2017-07-16T16:54:41.101Z,27.00
2017-07-16T16:57:09.319Z,26.80
2017-07-16T16:59:36.762Z,26.80
2017-07-16T17:02:04.220Z,26.70
2017-07-16T17:04:31.670Z,26.70
2017-07-16T17:06:59.128Z,26.80
2017-07-16T17:09:26.563Z,26.80
2017-07-16T17:11:54.013Z,26.40
2017-07-16T17:14:22.220Z,26.10
2017-07-16T17:16:49.679Z,26.10
2017-07-16T17:19:17.116Z,26.40
2017-07-16T17:21:44.555Z,26.10
2017-07-16T17:24:12.034Z,26.10
2017-07-16T17:26:40.259Z,25.90
2017-07-16T17:29:07.711Z,25.90
2017-07-16T17:31:35.164Z,26.00
2017-07-16T17:34:02.610Z,26.10
2017-07-16T17:36:30.063Z,26.10
2017-07-16T17:38:57.511Z,26.30
2017-07-16T17:41:24.956Z,25.80
2017-07-16T17:43:52.412Z,25.80
2017-07-16T17:46:19.866Z,25.90
2017-07-16T17:48:47.317Z,26.10
2017-07-16T17:51:14.756Z,25.90
2017-07-16T17:53:42.192Z,25.80
2017-07-16T17:56:09.639Z,25.60
2017-07-16T17:58:37.084Z,25.80
2017-07-16T18:01:04.535Z,25.50
2017-07-16T18:03:31.983Z,25.20
2017-07-16T18:05:59.436Z,25.30
2017-07-16T18:08:26.883Z,25.20
2017-07-16T18:10:54.334Z,25.30
2017-07-16T18:13:21.782Z,25.40
2017-07-16T18:15:49.223Z,25.30
2017-07-16T18:18:16.699Z,25.40
2017-07-16T18:20:44.151Z,25.30
2017-07-16T18:23:11.607Z,25.10
2017-07-16T18:25:39.052Z,25.10
2017-07-16T18:28:06.496Z,25.00
2017-07-16T18:30:33.931Z,25.10
2017-07-16T18:33:01.376Z,25.00
2017-07-16T18:35:28.815Z,24.90
2017-07-16T18:37:56.273Z,24.80
2017-07-16T18:40:23.716Z,24.90
2017-07-16T18:42:51.160Z,24.90
2017-07-16T18:45:18.613Z,24.90
2017-07-16T18:47:46.047Z,24.80
2017-07-16T18:50:13.491Z,24.80
2017-07-16T18:52:41.699Z,24.50
2017-07-16T18:55:09.151Z,24.50
2017-07-16T18:57:36.594Z,24.50
2017-07-16T19:00:04.041Z,24.50
2017-07-16T19:02:31.520Z,24.30
2017-07-16T19:04:58.928Z,24.20
2017-07-16T19:07:27.150Z,24.10
2017-07-16T19:09:54.607Z,24.10
2017-07-16T19:12:22.052Z,24.00
2017-07-16T19:14:49.496Z,24.00
2017-07-16T19:17:16.941Z,23.90
2017-07-16T19:19:45.179Z,23.50
2017-07-16T19:22:12.619Z,23.50
2017-07-16T19:24:40.063Z,23.20
2017-07-16T19:27:07.519Z,23.00
2017-07-16T19:29:35.075Z,22.90
2017-07-16T19:32:02.535Z,22.70
2017-07-16T19:34:29.982Z,22.70
2017-07-16T19:36:57.444Z,22.70
2017-07-16T19:39:24.880Z,22.50
2017-07-16T19:41:52.319Z,21.70
2017-07-16T19:44:20.532Z,20.80
2017-07-16T19:46:47.988Z,20.70
2017-07-16T19:49:15.443Z,20.70
2017-07-16T19:51:42.891Z,20.70
2017-07-16T19:54:10.342Z,20.50
2017-07-16T19:56:37.775Z,20.40
2017-07-16T19:59:05.986Z,20.10
2017-07-16T20:01:33.429Z,20.00
2017-07-16T20:04:00.875Z,20.00
2017-07-16T20:06:28.315Z,19.90
2017-07-16T20:08:56.539Z,19.80
2017-07-16T20:11:23.983Z,19.80
2017-07-16T20:13:51.496Z,19.70
2017-07-16T20:16:19.712Z,19.60
2017-07-16T20:18:47.155Z,19.60
2017-07-16T20:21:14.605Z,19.50
2017-07-16T20:23:42.043Z,19.40
2017-07-16T20:26:09.490Z,19.30
2017-07-16T20:28:36.935Z,19.20
2017-07-16T20:31:04.388Z,19.10
2017-07-16T20:33:31.832Z,19.00
2017-07-16T20:35:59.482Z,18.90
2017-07-16T20:38:26.923Z,18.70
2017-07-16T20:40:54.363Z,18.50
2017-07-16T20:43:22.296Z,18.40
2017-07-16T20:45:50.519Z,18.40
2017-07-16T20:48:17.979Z,18.40
2017-07-16T20:50:45.418Z,18.40
2017-07-16T20:53:12.867Z,18.40
2017-07-16T20:55:40.304Z,18.40
2017-07-16T20:58:08.544Z,18.30
2017-07-16T21:00:35.959Z,18.30
2017-07-16T21:03:03.399Z,18.30
2017-07-16T21:05:30.846Z,18.30
2017-07-16T21:07:59.059Z,18.00
2017-07-16T21:10:26.516Z,18.00
2017-07-16T21:12:53.965Z,17.80
2017-07-16T21:15:21.416Z,17.90
2017-07-16T21:17:48.850Z,17.90
2017-07-16T21:20:17.063Z,17.90
2017-07-16T21:22:44.511Z,17.90
2017-07-16T21:25:11.972Z,18.00
2017-07-16T21:27:39.420Z,17.80
2017-07-16T21:30:06.859Z,17.70
2017-07-16T21:32:34.304Z,17.50
2017-07-16T21:35:02.516Z,17.60
2017-07-16T21:37:29.963Z,17.60
2017-07-16T21:39:57.404Z,17.60
2017-07-16T21:42:24.851Z,17.60
2017-07-16T21:44:52.335Z,17.60
2017-07-16T21:47:19.795Z,17.70
2017-07-16T21:49:47.244Z,17.50
2017-07-16T21:52:14.687Z,17.40
2017-07-16T21:54:42.128Z,17.30
2017-07-16T21:57:10.339Z,17.30
2017-07-16T21:59:37.787Z,17.30
2017-07-16T22:02:05.241Z,17.20
2017-07-16T22:04:32.700Z,17.10
2017-07-16T22:07:00.148Z,17.20
2017-07-16T22:09:27.598Z,17.10
2017-07-16T22:11:55.035Z,17.30
2017-07-16T22:14:23.252Z,17.40
2017-07-16T22:16:50.691Z,17.40
2017-07-16T22:19:18.148Z,17.50
2017-07-16T22:21:45.595Z,17.50
2017-07-16T22:24:13.038Z,17.60
2017-07-16T22:26:41.240Z,17.50
2017-07-16T22:29:08.683Z,17.50
2017-07-16T22:31:36.123Z,17.50
2017-07-16T22:34:04.331Z,17.50
2017-07-16T22:36:31.788Z,17.40
2017-07-16T22:38:59.223Z,17.40
2017-07-16T22:41:26.663Z,17.40
2017-07-16T22:43:54.872Z,17.30
2017-07-16T22:46:22.327Z,17.30
2017-07-16T22:48:49.755Z,17.30
2017-07-16T22:51:17.194Z,17.30
2017-07-16T22:53:45.403Z,17.20
2017-07-16T22:56:12.843Z,17.20
2017-07-16T22:58:40.296Z,17.20
2017-07-16T23:01:08.503Z,16.80
2017-07-16T23:03:35.958Z,16.80
2017-07-16T23:06:03.404Z,17.00
2017-07-16T23:08:30.856Z,17.00
2017-07-16T23:10:58.296Z,16.90
2017-07-16T23:13:25.745Z,17.00
2017-07-16T23:15:53.956Z,16.90
2017-07-16T23:18:21.411Z,16.90
2017-07-16T23:20:48.854Z,16.90
2017-07-16T23:23:16.298Z,16.90
2017-07-16T23:25:43.746Z,17.00
2017-07-16T23:28:11.955Z,16.90
2017-07-16T23:30:39.415Z,16.90
2017-07-16T23:33:06.872Z,16.90
2017-07-16T23:35:34.322Z,16.90
2017-07-16T23:38:01.767Z,17.00
2017-07-16T23:40:29.212Z,16.80
2017-07-16T23:42:56.647Z,16.60
2017-07-16T23:45:24.866Z,16.50
2017-07-16T23:47:52.307Z,16.50
2017-07-16T23:50:19.762Z,16.40
2017-07-16T23:52:47.196Z,16.20
2017-07-16T23:55:15.418Z,16.20
2017-07-16T23:57:42.863Z,16.20
